sensor_id;sensor_type;location;lat;lon;timestamp;pressure;altitude;pressure_sealevel;temperature;humidity
64711;BME280;51139;45.626;6.850;2022-08-07T00:00:49;82485.38;;;15.71;65.42
64711;BME280;51139;45.626;6.850;2022-08-07T00:03:15;82487.00;;;16.08;63.57
64711;BME280;51139;45.626;6.850;2022-08-07T00:05:40;82486.13;;;15.94;63.92
64711;BME280;51139;45.626;6.850;2022-08-07T00:08:05;82483.91;;;15.80;64.53
64711;BME280;51139;45.626;6.850;2022-08-07T00:10:31;82484.66;;;15.39;66.01
64711;BME280;51139;45.626;6.850;2022-08-07T00:13:01;82487.91;;;15.38;66.71
64711;BME280;51139;45.626;6.850;2022-08-07T00:15:27;82489.34;;;15.29;66.64
64711;BME280;51139;45.626;6.850;2022-08-07T00:17:53;82488.56;;;15.48;66.08
64711;BME280;51139;45.626;6.850;2022-08-07T00:20:18;82489.50;;;15.84;64.75
64711;BME280;51139;45.626;6.850;2022-08-07T00:22:44;82488.75;;;15.09;66.78
64711;BME280;51139;45.626;6.850;2022-08-07T00:25:09;82495.44;;;14.58;70.66
64711;BME280;51139;45.626;6.850;2022-08-07T00:27:35;82490.53;;;15.16;69.25
64711;BME280;51139;45.626;6.850;2022-08-07T00:30:02;82489.41;;;15.51;66.74
64711;BME280;51139;45.626;6.850;2022-08-07T00:32:28;82493.34;;;15.18;68.27
64711;BME280;51139;45.626;6.850;2022-08-07T00:34:53;82488.63;;;14.97;69.04
64711;BME280;51139;45.626;6.850;2022-08-07T00:37:19;82484.91;;;14.70;70.25
64711;BME280;51139;45.626;6.850;2022-08-07T00:39:44;82485.88;;;14.75;70.68
64711;BME280;51139;45.626;6.850;2022-08-07T00:42:10;82485.44;;;14.69;70.41
64711;BME280;51139;45.626;6.850;2022-08-07T00:44:36;82490.03;;;14.98;69.29
64711;BME280;51139;45.626;6.850;2022-08-07T00:47:03;82479.88;;;15.16;68.02
64711;BME280;51139;45.626;6.850;2022-08-07T00:49:29;82476.09;;;15.09;68.69
64711;BME280;51139;45.626;6.850;2022-08-07T00:51:55;82474.03;;;14.98;68.46
64711;BME280;51139;45.626;6.850;2022-08-07T00:54:20;82465.13;;;15.15;67.68
64711;BME280;51139;45.626;6.850;2022-08-07T00:56:47;82462.41;;;15.25;66.75
64711;BME280;51139;45.626;6.850;2022-08-07T00:59:13;82470.28;;;15.23;66.37
64711;BME280;51139;45.626;6.850;2022-08-07T01:01:38;82460.59;;;14.66;69.75
64711;BME280;51139;45.626;6.850;2022-08-07T01:04:07;82465.56;;;15.43;66.90
64711;BME280;51139;45.626;6.850;2022-08-07T01:06:33;82467.00;;;15.34;66.83
64711;BME280;51139;45.626;6.850;2022-08-07T01:09:00;82465.59;;;15.86;64.73
64711;BME280;51139;45.626;6.850;2022-08-07T01:11:26;82462.75;;;16.16;63.87
64711;BME280;51139;45.626;6.850;2022-08-07T01:13:51;82465.13;;;15.46;66.11
64711;BME280;51139;45.626;6.850;2022-08-07T01:16:17;82462.72;;;15.19;67.91
64711;BME280;51139;45.626;6.850;2022-08-07T01:18:42;82466.00;;;15.39;67.66
64711;BME280;51139;45.626;6.850;2022-08-07T01:21:18;82464.91;;;16.08;64.65
64711;BME280;51139;45.626;6.850;2022-08-07T01:23:46;82460.53;;;16.12;64.04
64711;BME280;51139;45.626;6.850;2022-08-07T01:26:13;82461.34;;;15.71;65.30
64711;BME280;51139;45.626;6.850;2022-08-07T01:28:44;82458.53;;;15.48;66.17
64711;BME280;51139;45.626;6.850;2022-08-07T01:31:10;82453.38;;;15.61;65.64
64711;BME280;51139;45.626;6.850;2022-08-07T01:33:36;82450.78;;;16.39;62.50
64711;BME280;51139;45.626;6.850;2022-08-07T01:36:02;82460.81;;;15.95;63.84
64711;BME280;51139;45.626;6.850;2022-08-07T01:38:28;82450.47;;;16.23;62.96
64711;BME280;51139;45.626;6.850;2022-08-07T01:40:57;82453.38;;;15.83;63.75
64711;BME280;51139;45.626;6.850;2022-08-07T01:43:24;82449.94;;;15.71;65.26
64711;BME280;51139;45.626;6.850;2022-08-07T01:45:50;82449.50;;;15.53;66.04
64711;BME280;51139;45.626;6.850;2022-08-07T01:48:16;82449.00;;;15.13;68.43
64711;BME280;51139;45.626;6.850;2022-08-07T01:50:45;82456.91;;;14.91;69.24
64711;BME280;51139;45.626;6.850;2022-08-07T01:53:12;82457.13;;;14.44;71.71
64711;BME280;51139;45.626;6.850;2022-08-07T01:55:44;82449.13;;;14.64;71.88
64711;BME280;51139;45.626;6.850;2022-08-07T01:58:14;82445.09;;;15.04;69.80
64711;BME280;51139;45.626;6.850;2022-08-07T02:00:43;82446.97;;;14.82;70.96
64711;BME280;51139;45.626;6.850;2022-08-07T02:03:12;82449.88;;;15.06;69.84
64711;BME280;51139;45.626;6.850;2022-08-07T02:05:43;82443.91;;;15.17;68.65
64711;BME280;51139;45.626;6.850;2022-08-07T02:08:20;82452.09;;;14.99;69.48
64711;BME280;51139;45.626;6.850;2022-08-07T02:10:48;82448.72;;;14.48;71.75
64711;BME280;51139;45.626;6.850;2022-08-07T02:13:19;82447.16;;;14.54;71.02
64711;BME280;51139;45.626;6.850;2022-08-07T02:15:46;82444.91;;;14.80;68.97
64711;BME280;51139;45.626;6.850;2022-08-07T02:18:14;82451.25;;;15.38;66.59
64711;BME280;51139;45.626;6.850;2022-08-07T02:20:41;82443.59;;;15.23;65.90
64711;BME280;51139;45.626;6.850;2022-08-07T02:23:09;82446.59;;;14.56;68.17
64711;BME280;51139;45.626;6.850;2022-08-07T02:25:37;82448.03;;;14.98;67.33
64711;BME280;51139;45.626;6.850;2022-08-07T02:28:05;82443.41;;;14.48;69.08
64711;BME280;51139;45.626;6.850;2022-08-07T02:30:33;82438.09;;;14.38;69.44
64711;BME280;51139;45.626;6.850;2022-08-07T02:33:00;82431.47;;;14.39;69.24
64711;BME280;51139;45.626;6.850;2022-08-07T02:35:27;82430.75;;;14.58;68.77
64711;BME280;51139;45.626;6.850;2022-08-07T02:37:55;82427.44;;;14.89;66.99
64711;BME280;51139;45.626;6.850;2022-08-07T02:40:22;82419.44;;;14.89;66.56
64711;BME280;51139;45.626;6.850;2022-08-07T02:42:49;82420.94;;;14.51;68.31
64711;BME280;51139;45.626;6.850;2022-08-07T02:45:16;82414.44;;;14.83;66.69
64711;BME280;51139;45.626;6.850;2022-08-07T02:47:43;82405.56;;;14.91;66.07
64711;BME280;51139;45.626;6.850;2022-08-07T02:50:09;82411.59;;;14.30;68.44
64711;BME280;51139;45.626;6.850;2022-08-07T02:52:40;82411.97;;;14.46;68.06
64711;BME280;51139;45.626;6.850;2022-08-07T02:55:11;82400.16;;;14.69;66.11
64711;BME280;51139;45.626;6.850;2022-08-07T02:57:39;82398.91;;;14.50;67.91
64711;BME280;51139;45.626;6.850;2022-08-07T03:00:06;82389.66;;;14.51;67.16
64711;BME280;51139;45.626;6.850;2022-08-07T03:02:33;82382.75;;;14.99;64.61
64711;BME280;51139;45.626;6.850;2022-08-07T03:05:00;82389.22;;;14.96;64.48
64711;BME280;51139;45.626;6.850;2022-08-07T03:07:28;82390.66;;;15.51;63.28
64711;BME280;51139;45.626;6.850;2022-08-07T03:09:54;82385.09;;;15.58;63.68
64711;BME280;51139;45.626;6.850;2022-08-07T03:12:20;82375.69;;;14.82;66.22
64711;BME280;51139;45.626;6.850;2022-08-07T03:14:45;82382.50;;;14.54;67.36
64711;BME280;51139;45.626;6.850;2022-08-07T03:17:11;82374.75;;;14.99;65.43
64711;BME280;51139;45.626;6.850;2022-08-07T03:19:37;82371.03;;;14.93;64.92
64711;BME280;51139;45.626;6.850;2022-08-07T03:22:04;82372.97;;;15.45;63.83
64711;BME280;51139;45.626;6.850;2022-08-07T03:24:31;82374.09;;;14.89;66.06
64711;BME280;51139;45.626;6.850;2022-08-07T03:27:01;82377.56;;;14.70;67.17
64711;BME280;51139;45.626;6.850;2022-08-07T03:29:33;82374.50;;;14.95;65.80
64711;BME280;51139;45.626;6.850;2022-08-07T03:32:05;82379.66;;;15.03;65.69
64711;BME280;51139;45.626;6.850;2022-08-07T03:34:32;82379.97;;;15.72;63.04
64711;BME280;51139;45.626;6.850;2022-08-07T03:36:59;82367.50;;;15.65;63.30
64711;BME280;51139;45.626;6.850;2022-08-07T03:39:26;82375.44;;;15.10;65.59
64711;BME280;51139;45.626;6.850;2022-08-07T03:41:53;82373.06;;;14.72;67.28
64711;BME280;51139;45.626;6.850;2022-08-07T03:44:19;82368.34;;;14.93;66.78
64711;BME280;51139;45.626;6.850;2022-08-07T03:46:45;82369.09;;;14.83;65.74
64711;BME280;51139;45.626;6.850;2022-08-07T03:49:11;82370.41;;;14.72;66.76
64711;BME280;51139;45.626;6.850;2022-08-07T03:51:37;82373.47;;;14.69;66.77
64711;BME280;51139;45.626;6.850;2022-08-07T03:54:03;82366.03;;;14.77;65.81
64711;BME280;51139;45.626;6.850;2022-08-07T03:56:30;82370.56;;;14.65;66.96
64711;BME280;51139;45.626;6.850;2022-08-07T03:58:58;82373.06;;;14.72;66.71
64711;BME280;51139;45.626;6.850;2022-08-07T04:01:25;82366.41;;;13.81;69.07
64711;BME280;51139;45.626;6.850;2022-08-07T04:03:53;82368.03;;;14.06;69.46
64711;BME280;51139;45.626;6.850;2022-08-07T04:06:18;82369.78;;;14.33;68.67
64711;BME280;51139;45.626;6.850;2022-08-07T04:08:45;82365.41;;;14.47;68.56
64711;BME280;51139;45.626;6.850;2022-08-07T04:11:11;82374.84;;;14.28;67.31
64711;BME280;51139;45.626;6.850;2022-08-07T04:13:37;82371.31;;;13.55;71.95
64711;BME280;51139;45.626;6.850;2022-08-07T04:16:04;82376.22;;;13.88;71.42
64711;BME280;51139;45.626;6.850;2022-08-07T04:18:30;82368.34;;;14.51;68.15
64711;BME280;51139;45.626;6.850;2022-08-07T04:20:55;82374.41;;;15.15;66.26
64711;BME280;51139;45.626;6.850;2022-08-07T04:23:22;82380.34;;;15.35;65.02
64711;BME280;51139;45.626;6.850;2022-08-07T04:25:49;82375.69;;;15.14;65.46
64711;BME280;51139;45.626;6.850;2022-08-07T04:28:15;82372.03;;;14.87;66.86
64711;BME280;51139;45.626;6.850;2022-08-07T04:30:41;82380.44;;;15.15;65.57
64711;BME280;51139;45.626;6.850;2022-08-07T04:33:08;82382.38;;;14.93;66.27
64711;BME280;51139;45.626;6.850;2022-08-07T04:35:35;82390.63;;;14.66;68.30
64711;BME280;51139;45.626;6.850;2022-08-07T04:38:08;82391.16;;;14.23;69.73
64711;BME280;51139;45.626;6.850;2022-08-07T04:40:38;82392.41;;;14.22;69.83
64711;BME280;51139;45.626;6.850;2022-08-07T04:43:04;82387.91;;;14.76;67.79
64711;BME280;51139;45.626;6.850;2022-08-07T04:51:36;82399.59;;;14.70;68.30
64711;BME280;51139;45.626;6.850;2022-08-07T04:54:17;82401.28;;;14.56;68.55
64711;BME280;51139;45.626;6.850;2022-08-07T04:56:58;82401.94;;;14.25;70.46
64711;BME280;51139;45.626;6.850;2022-08-07T04:59:37;82406.75;;;14.68;68.95
64711;BME280;51139;45.626;6.850;2022-08-07T05:04:55;82406.44;;;14.12;71.05
64711;BME280;51139;45.626;6.850;2022-08-07T05:08:13;82409.28;;;14.66;67.75
64711;BME280;51139;45.626;6.850;2022-08-07T05:10:18;82405.28;;;14.25;69.50
64711;BME280;51139;45.626;6.850;2022-08-07T05:12:56;82407.72;;;15.14;66.19
64711;BME280;51139;45.626;6.850;2022-08-07T05:15:26;82404.03;;;14.87;66.88
64711;BME280;51139;45.626;6.850;2022-08-07T05:18:00;82409.00;;;14.62;68.15
64711;BME280;51139;45.626;6.850;2022-08-07T05:20:32;82409.31;;;14.97;66.20
64711;BME280;51139;45.626;6.850;2022-08-07T05:23:04;82411.50;;;15.11;66.00
64711;BME280;51139;45.626;6.850;2022-08-07T05:25:31;82408.09;;;14.27;70.13
64711;BME280;51139;45.626;6.850;2022-08-07T05:27:57;82407.97;;;14.25;71.07
64711;BME280;51139;45.626;6.850;2022-08-07T05:30:25;82416.84;;;13.98;71.74
64711;BME280;51139;45.626;6.850;2022-08-07T05:32:52;82405.16;;;14.23;70.80
64711;BME280;51139;45.626;6.850;2022-08-07T05:35:18;82407.91;;;14.45;67.66
64711;BME280;51139;45.626;6.850;2022-08-07T05:37:45;82412.69;;;14.37;67.66
64711;BME280;51139;45.626;6.850;2022-08-07T05:40:11;82419.44;;;13.39;73.85
64711;BME280;51139;45.626;6.850;2022-08-07T05:42:37;82415.16;;;13.83;72.88
64711;BME280;51139;45.626;6.850;2022-08-07T05:45:06;82416.28;;;13.70;73.73
64711;BME280;51139;45.626;6.850;2022-08-07T05:47:33;82415.69;;;14.11;71.58
64711;BME280;51139;45.626;6.850;2022-08-07T05:49:59;82414.94;;;14.40;69.93
64711;BME280;51139;45.626;6.850;2022-08-07T05:52:26;82420.94;;;14.61;68.81
64711;BME280;51139;45.626;6.850;2022-08-07T05:54:51;82416.44;;;14.73;67.27
64711;BME280;51139;45.626;6.850;2022-08-07T05:57:17;82413.06;;;14.63;67.89
64711;BME280;51139;45.626;6.850;2022-08-07T05:59:45;82415.22;;;14.96;67.07
64711;BME280;51139;45.626;6.850;2022-08-07T06:02:13;82413.84;;;15.48;64.72
64711;BME280;51139;45.626;6.850;2022-08-07T06:04:46;82417.31;;;14.97;65.72
64711;BME280;51139;45.626;6.850;2022-08-07T06:07:13;82416.31;;;15.56;63.93
64711;BME280;51139;45.626;6.850;2022-08-07T06:09:39;82420.63;;;15.93;62.70
64711;BME280;51139;45.626;6.850;2022-08-07T06:12:05;82420.91;;;15.65;63.63
64711;BME280;51139;45.626;6.850;2022-08-07T06:14:31;82416.81;;;15.86;62.79
64711;BME280;51139;45.626;6.850;2022-08-07T06:16:57;82417.47;;;15.96;62.45
64711;BME280;51139;45.626;6.850;2022-08-07T06:19:23;82422.38;;;15.25;64.97
64711;BME280;51139;45.626;6.850;2022-08-07T06:21:49;82429.94;;;15.07;64.90
64711;BME280;51139;45.626;6.850;2022-08-07T06:24:15;82424.16;;;15.32;65.00
64711;BME280;51139;45.626;6.850;2022-08-07T06:26:41;82419.44;;;15.52;64.01
64711;BME280;51139;45.626;6.850;2022-08-07T06:29:07;82418.41;;;15.36;67.11
64711;BME280;51139;45.626;6.850;2022-08-07T06:31:33;82421.06;;;15.89;65.87
64711;BME280;51139;45.626;6.850;2022-08-07T06:33:59;82414.72;;;15.84;63.26
64711;BME280;51139;45.626;6.850;2022-08-07T06:36:24;82412.44;;;16.12;63.47
64711;BME280;51139;45.626;6.850;2022-08-07T06:38:51;82413.34;;;16.39;62.92
64711;BME280;51139;45.626;6.850;2022-08-07T06:41:27;82414.41;;;16.45;61.76
64711;BME280;51139;45.626;6.850;2022-08-07T06:43:55;82413.13;;;16.46;62.81
64711;BME280;51139;45.626;6.850;2022-08-07T06:46:22;82421.19;;;16.25;67.46
64711;BME280;51139;45.626;6.850;2022-08-07T06:48:47;82414.66;;;16.49;65.75
64711;BME280;51139;45.626;6.850;2022-08-07T06:51:19;82409.25;;;16.83;63.88
64711;BME280;51139;45.626;6.850;2022-08-07T06:53:46;82408.38;;;17.50;58.43
64711;BME280;51139;45.626;6.850;2022-08-07T06:56:13;82407.44;;;17.33;63.82
64711;BME280;51139;45.626;6.850;2022-08-07T06:58:40;82410.59;;;17.18;65.24
64711;BME280;51139;45.626;6.850;2022-08-07T07:01:08;82408.28;;;17.36;66.95
64711;BME280;51139;45.626;6.850;2022-08-07T07:03:37;82409.09;;;18.24;63.89
64711;BME280;51139;45.626;6.850;2022-08-07T07:06:05;82406.41;;;18.76;55.19
64711;BME280;51139;45.626;6.850;2022-08-07T07:08:30;82401.31;;;18.94;54.96
64711;BME280;51139;45.626;6.850;2022-08-07T07:10:56;82402.13;;;18.71;55.26
64711;BME280;51139;45.626;6.850;2022-08-07T07:13:35;82400.41;;;19.29;55.03
64711;BME280;51139;45.626;6.850;2022-08-07T07:16:07;82395.19;;;19.59;49.03
64711;BME280;51139;45.626;6.850;2022-08-07T07:18:40;82396.47;;;19.72;48.46
64711;BME280;51139;45.626;6.850;2022-08-07T07:21:18;82402.19;;;18.59;59.63
64711;BME280;51139;45.626;6.850;2022-08-07T07:23:44;82394.78;;;19.79;52.60
64711;BME280;51139;45.626;6.850;2022-08-07T07:26:15;82393.88;;;20.16;50.13
64711;BME280;51139;45.626;6.850;2022-08-07T07:28:45;82390.31;;;20.11;47.68
64711;BME280;51139;45.626;6.850;2022-08-07T07:31:29;82394.81;;;19.93;48.70
64711;BME280;51139;45.626;6.850;2022-08-07T07:34:02;82391.72;;;20.42;47.53
64711;BME280;51139;45.626;6.850;2022-08-07T07:36:29;82390.41;;;20.58;51.19
64711;BME280;51139;45.626;6.850;2022-08-07T07:38:56;82387.16;;;20.31;54.97
64711;BME280;51139;45.626;6.850;2022-08-07T07:41:23;82387.75;;;20.44;54.50
64711;BME280;51139;45.626;6.850;2022-08-07T07:43:50;82384.44;;;20.89;49.89
64711;BME280;51139;45.626;6.850;2022-08-07T07:46:16;82381.47;;;21.29;50.20
64711;BME280;51139;45.626;6.850;2022-08-07T07:48:44;82383.06;;;20.74;50.24
64711;BME280;51139;45.626;6.850;2022-08-07T07:51:11;82388.94;;;20.84;46.46
64711;BME280;51139;45.626;6.850;2022-08-07T07:53:40;82388.06;;;20.80;51.20
64711;BME280;51139;45.626;6.850;2022-08-07T07:56:08;82383.50;;;19.82;53.00
64711;BME280;51139;45.626;6.850;2022-08-07T07:58:36;82381.13;;;20.03;55.71
64711;BME280;51139;45.626;6.850;2022-08-07T08:01:03;82376.31;;;20.29;48.14
64711;BME280;51139;45.626;6.850;2022-08-07T08:03:30;82382.91;;;20.26;47.00
64711;BME280;51139;45.626;6.850;2022-08-07T08:05:56;82374.63;;;20.66;45.37
64711;BME280;51139;45.626;6.850;2022-08-07T08:08:24;82382.53;;;20.04;55.14
64711;BME280;51139;45.626;6.850;2022-08-07T08:10:51;82383.19;;;19.20;58.91
64711;BME280;51139;45.626;6.850;2022-08-07T08:13:20;82373.69;;;20.01;53.98
64711;BME280;51139;45.626;6.850;2022-08-07T08:15:47;82375.28;;;20.06;52.01
64711;BME280;51139;45.626;6.850;2022-08-07T08:18:14;82369.38;;;20.24;53.52
64711;BME280;51139;45.626;6.850;2022-08-07T08:20:40;82374.13;;;20.25;51.93
64711;BME280;51139;45.626;6.850;2022-08-07T08:23:08;82372.91;;;21.03;50.84
64711;BME280;51139;45.626;6.850;2022-08-07T08:25:54;82372.75;;;21.31;45.21
64711;BME280;51139;45.626;6.850;2022-08-07T08:28:51;82371.69;;;21.06;45.72
64711;BME280;51139;45.626;6.850;2022-08-07T08:31:29;82368.63;;;20.81;47.77
64711;BME280;51139;45.626;6.850;2022-08-07T08:33:59;82376.97;;;20.44;49.11
64711;BME280;51139;45.626;6.850;2022-08-07T08:36:28;82371.13;;;20.33;54.16
64711;BME280;51139;45.626;6.850;2022-08-07T08:38:56;82368.03;;;20.99;53.15
64711;BME280;51139;45.626;6.850;2022-08-07T08:41:40;82367.19;;;21.26;51.67
64711;BME280;51139;45.626;6.850;2022-08-07T08:44:14;82360.25;;;21.37;51.64
64711;BME280;51139;45.626;6.850;2022-08-07T08:46:54;82360.53;;;20.51;53.75
64711;BME280;51139;45.626;6.850;2022-08-07T08:49:32;82364.03;;;21.00;52.65
64711;BME280;51139;45.626;6.850;2022-08-07T08:52:07;82363.25;;;20.97;52.82
64711;BME280;51139;45.626;6.850;2022-08-07T08:54:44;82364.59;;;21.28;51.47
64711;BME280;51139;45.626;6.850;2022-08-07T08:57:25;82362.81;;;19.85;55.88
64711;BME280;51139;45.626;6.850;2022-08-07T09:00:00;82362.31;;;20.17;56.17
64711;BME280;51139;45.626;6.850;2022-08-07T09:13:34;82353.47;;;20.00;55.40
64711;BME280;51139;45.626;6.850;2022-08-07T09:16:07;82356.56;;;19.94;55.89
64711;BME280;51139;45.626;6.850;2022-08-07T09:29:52;82360.66;;;20.69;55.56
64711;BME280;51139;45.626;6.850;2022-08-07T09:46:07;82356.91;;;20.61;56.52
64711;BME280;51139;45.626;6.850;2022-08-07T09:52:25;82364.25;;;20.44;56.29
64711;BME280;51139;45.626;6.850;2022-08-07T09:54:51;82365.16;;;20.95;55.97
64711;BME280;51139;45.626;6.850;2022-08-07T10:00:14;82369.06;;;20.92;55.53
64711;BME280;51139;45.626;6.850;2022-08-07T10:02:52;82366.03;;;20.69;54.71
64711;BME280;51139;45.626;6.850;2022-08-07T10:05:28;82363.63;;;21.06;55.35
64711;BME280;51139;45.626;6.850;2022-08-07T10:08:20;82367.53;;;21.03;56.19
64711;BME280;51139;45.626;6.850;2022-08-07T10:21:52;82366.84;;;21.50;55.90
64711;BME280;51139;45.626;6.850;2022-08-07T10:27:45;82355.66;;;21.40;55.29
64711;BME280;51139;45.626;6.850;2022-08-07T10:30:16;82360.44;;;21.74;52.78
64711;BME280;51139;45.626;6.850;2022-08-07T10:35:41;82352.59;;;21.80;53.72
64711;BME280;51139;45.626;6.850;2022-08-07T10:40:55;82349.16;;;21.77;54.50
64711;BME280;51139;45.626;6.850;2022-08-07T10:43:31;82350.88;;;21.70;50.65
64711;BME280;51139;45.626;6.850;2022-08-07T10:46:00;82348.25;;;21.89;54.07
64711;BME280;51139;45.626;6.850;2022-08-07T10:49:07;82345.47;;;21.54;53.22
64711;BME280;51139;45.626;6.850;2022-08-07T10:54:36;82338.44;;;21.79;53.01
64711;BME280;51139;45.626;6.850;2022-08-07T10:57:31;82345.34;;;22.00;49.85
64711;BME280;51139;45.626;6.850;2022-08-07T11:00:05;82340.91;;;22.07;51.17
64711;BME280;51139;45.626;6.850;2022-08-07T11:02:38;82345.38;;;22.53;49.20
64711;BME280;51139;45.626;6.850;2022-08-07T11:05:10;82348.63;;;22.49;50.16
64711;BME280;51139;45.626;6.850;2022-08-07T11:10:19;82341.09;;;22.29;48.52
64711;BME280;51139;45.626;6.850;2022-08-07T11:12:58;82341.56;;;22.76;47.03
64711;BME280;51139;45.626;6.850;2022-08-07T11:15:27;82344.16;;;23.10;45.71
64711;BME280;51139;45.626;6.850;2022-08-07T11:18:02;82340.78;;;22.92;46.45
64711;BME280;51139;45.626;6.850;2022-08-07T11:26:13;82338.75;;;23.28;47.24
64711;BME280;51139;45.626;6.850;2022-08-07T11:31:21;82343.53;;;23.48;43.60
64711;BME280;51139;45.626;6.850;2022-08-07T11:34:11;82342.38;;;23.35;41.95
64711;BME280;51139;45.626;6.850;2022-08-07T11:36:57;82343.06;;;23.36;44.41
64711;BME280;51139;45.626;6.850;2022-08-07T11:41:59;82341.47;;;23.28;40.35
64711;BME280;51139;45.626;6.850;2022-08-07T11:45:39;82330.97;;;23.57;40.71
64711;BME280;51139;45.626;6.850;2022-08-07T11:47:53;82332.63;;;23.46;41.41
64711;BME280;51139;45.626;6.850;2022-08-07T12:05:12;82319.34;;;23.52;42.36
64711;BME280;51139;45.626;6.850;2022-08-07T12:07:47;82315.81;;;23.29;41.84
64711;BME280;51139;45.626;6.850;2022-08-07T12:10:19;82312.28;;;23.25;42.10
64711;BME280;51139;45.626;6.850;2022-08-07T12:13:09;82314.75;;;23.57;43.14
64711;BME280;51139;45.626;6.850;2022-08-07T12:15:43;82311.00;;;23.66;40.81
64711;BME280;51139;45.626;6.850;2022-08-07T12:18:21;82300.63;;;23.99;40.00
64711;BME280;51139;45.626;6.850;2022-08-07T12:21:00;82310.63;;;23.94;39.38
64711;BME280;51139;45.626;6.850;2022-08-07T12:26:47;82314.06;;;23.97;36.39
64711;BME280;51139;45.626;6.850;2022-08-07T12:29:29;82308.53;;;23.93;38.69
64711;BME280;51139;45.626;6.850;2022-08-07T12:32:20;82304.44;;;23.92;38.64
64711;BME280;51139;45.626;6.850;2022-08-07T12:34:52;82295.34;;;23.83;39.20
64711;BME280;51139;45.626;6.850;2022-08-07T12:37:19;82302.09;;;24.02;37.72
64711;BME280;51139;45.626;6.850;2022-08-07T12:39:47;82299.53;;;23.66;38.08
64711;BME280;51139;45.626;6.850;2022-08-07T12:42:17;82294.38;;;23.54;39.07
64711;BME280;51139;45.626;6.850;2022-08-07T12:44:46;82297.91;;;23.79;37.40
64711;BME280;51139;45.626;6.850;2022-08-07T12:52:49;82293.00;;;23.73;38.79
64711;BME280;51139;45.626;6.850;2022-08-07T12:55:24;82284.47;;;24.01;39.44
64711;BME280;51139;45.626;6.850;2022-08-07T12:57:52;82286.31;;;24.16;39.54
64711;BME280;51139;45.626;6.850;2022-08-07T13:00:19;82272.34;;;24.02;38.41
64711;BME280;51139;45.626;6.850;2022-08-07T13:03:06;82271.97;;;23.92;38.98
64711;BME280;51139;45.626;6.850;2022-08-07T13:08:47;82268.72;;;23.35;37.44
64711;BME280;51139;45.626;6.850;2022-08-07T13:16:41;82265.69;;;23.65;37.92
64711;BME280;51139;45.626;6.850;2022-08-07T13:19:20;82272.00;;;23.51;37.42
64711;BME280;51139;45.626;6.850;2022-08-07T13:22:00;82272.19;;;23.78;37.08
64711;BME280;51139;45.626;6.850;2022-08-07T13:24:35;82268.16;;;23.79;34.66
64711;BME280;51139;45.626;6.850;2022-08-07T13:27:24;82268.47;;;23.67;37.27
64711;BME280;51139;45.626;6.850;2022-08-07T13:30:02;82255.22;;;23.75;37.17
64711;BME280;51139;45.626;6.850;2022-08-07T13:32:33;82251.34;;;23.80;37.24
64711;BME280;51139;45.626;6.850;2022-08-07T13:35:17;82244.91;;;23.49;37.61
64711;BME280;51139;45.626;6.850;2022-08-07T13:40:40;82248.41;;;23.13;38.12
64711;BME280;51139;45.626;6.850;2022-08-07T13:43:10;82252.63;;;23.18;38.15
64711;BME280;51139;45.626;6.850;2022-08-07T13:45:39;82251.28;;;22.99;36.97
64711;BME280;51139;45.626;6.850;2022-08-07T13:48:06;82261.16;;;22.93;37.52
64711;BME280;51139;45.626;6.850;2022-08-07T13:50:33;82275.50;;;22.25;37.81
64711;BME280;51139;45.626;6.850;2022-08-07T13:52:59;82272.53;;;21.82;38.49
64711;BME280;51139;45.626;6.850;2022-08-07T13:55:26;82275.19;;;22.16;38.63
64711;BME280;51139;45.626;6.850;2022-08-07T13:58:07;82269.97;;;22.39;39.44
64711;BME280;51139;45.626;6.850;2022-08-07T14:00:52;82277.47;;;22.58;38.34
64711;BME280;51139;45.626;6.850;2022-08-07T14:03:22;82266.38;;;22.68;38.23
64711;BME280;51139;45.626;6.850;2022-08-07T14:05:53;82269.03;;;22.86;37.91
64711;BME280;51139;45.626;6.850;2022-08-07T14:08:23;82267.78;;;22.89;38.76
64711;BME280;51139;45.626;6.850;2022-08-07T14:10:50;82265.56;;;23.02;40.18
64711;BME280;51139;45.626;6.850;2022-08-07T14:13:19;82259.00;;;22.89;41.06
64711;BME280;51139;45.626;6.850;2022-08-07T14:15:53;82264.13;;;22.81;39.89
64711;BME280;51139;45.626;6.850;2022-08-07T14:18:31;82262.84;;;23.02;38.80
64711;BME280;51139;45.626;6.850;2022-08-07T14:21:18;82268.84;;;22.62;37.88
64711;BME280;51139;45.626;6.850;2022-08-07T14:23:49;82272.00;;;22.74;37.95
64711;BME280;51139;45.626;6.850;2022-08-07T14:26:21;82272.38;;;22.49;38.15
64711;BME280;51139;45.626;6.850;2022-08-07T14:28:48;82270.47;;;22.69;39.65
64711;BME280;51139;45.626;6.850;2022-08-07T14:31:15;82266.00;;;22.96;40.32
64711;BME280;51139;45.626;6.850;2022-08-07T14:33:41;82267.75;;;22.69;41.45
64711;BME280;51139;45.626;6.850;2022-08-07T14:36:07;82269.75;;;22.87;40.17
64711;BME280;51139;45.626;6.850;2022-08-07T14:38:34;82269.66;;;23.03;37.64
64711;BME280;51139;45.626;6.850;2022-08-07T14:41:09;82271.03;;;23.04;37.68
64711;BME280;51139;45.626;6.850;2022-08-07T14:43:39;82274.84;;;22.79;38.21
64711;BME280;51139;45.626;6.850;2022-08-07T14:46:05;82279.28;;;23.08;37.60
64711;BME280;51139;45.626;6.850;2022-08-07T14:48:34;82275.53;;;22.79;37.76
64711;BME280;51139;45.626;6.850;2022-08-07T14:51:06;82267.81;;;22.17;37.77
64711;BME280;51139;45.626;6.850;2022-08-07T14:53:39;82266.28;;;21.78;39.28
64711;BME280;51139;45.626;6.850;2022-08-07T14:56:07;82268.22;;;22.45;40.58
64711;BME280;51139;45.626;6.850;2022-08-07T14:58:36;82272.91;;;22.81;39.86
64711;BME280;51139;45.626;6.850;2022-08-07T15:01:04;82286.47;;;22.83;39.20
64711;BME280;51139;45.626;6.850;2022-08-07T15:03:31;82286.16;;;22.39;39.19
64711;BME280;51139;45.626;6.850;2022-08-07T15:05:59;82277.25;;;22.00;42.30
64711;BME280;51139;45.626;6.850;2022-08-07T15:08:28;82291.81;;;21.61;41.73
64711;BME280;51139;45.626;6.850;2022-08-07T15:11:16;82294.13;;;20.56;40.98
64711;BME280;51139;45.626;6.850;2022-08-07T15:14:02;82303.34;;;19.35;43.12
64711;BME280;51139;45.626;6.850;2022-08-07T15:16:36;82299.81;;;20.02;41.54
64711;BME280;51139;45.626;6.850;2022-08-07T15:19:05;82313.44;;;20.06;40.93